Cedar Grove, NJ (07009)

3:23 AM EDT on August 29, 2016 (GMT -0400)
Crestmont Road | | Change Station

Elev 564 ft 40.84 °N, 74.22 °W | Updated 3 seconds ago

Mostly Cloudy
Mostly Cloudy
71.3 °F
Feels Like 71 °F
N
0.0
Wind Variable Wind from WSW
Gusts 1.0 mph

Today
High -- | Low -- °F
--% Chance of Precip.
Yesterday
High -- | Low -- °F
Precip. -- in
Pressure 30.16 in
Visibility 10.0 miles
Clouds Mostly Cloudy 7000 ft
Heat Index 71 °F
Dew Point 65 °F
Humidity 81%
Rainfall 0.00 in
Snow Depth Not available.
6:21 AM 7:33 PM
Waning Crescent, 10% visible
METAR KCDW 290653Z AUTO 00000KT 10SM BKN070 22/18 A3015 RMK AO2 SLP212 T02220183 TSNO
Pressure 30.16 in
Visibility 10.0 miles
Clouds Mostly Cloudy 7000 ft
Heat Index 71 °F
Dew Point 65 °F
Humidity 81%
Rainfall 0.00 in
Snow Depth Not available.
6:21 AM 7:33 PM
Waning Crescent, 10% visible
METAR KCDW 290653Z AUTO 00000KT 10SM BKN070 22/18 A3015 RMK AO2 SLP212 T02220183 TSNO

10-Day Weather Forecast

Almanac

Astronomy

Aug. 29, 2016 Rise Set
Actual Time
Civil Twilight
Nautical Twilight
Astronomical Twilight
Moon
Length of Visible Light
Length of Day
Tomorrow will be .
, % of the Moon is Illuminated

Today's Extremes

State Highs State Lows

Community

WunderPhotos

Upload Photos

1,935,800 photos uploaded!

WunderBlog® & News

Nearby

Air Quality

  Air Quality AQ Index Pollutant
Not available.

Snow Depth

Station Depth Elevation

Earthquake Activity

City Distance Mag. Time & Date
Minimum magnitude displayed is 2.5.

Coastal Water Temperatures

Place Temperature

Stations

Nearby Weather Stations

Station Location Temp. Windchill Dew Point Humidity Wind Precip. Elev Updated Type
                   

Watches & Warnings

There are currently no watches in effect.